createdAt,value
2018-07-01T00:01:06.072Z,0
2018-07-01T00:02:15.878Z,0
2018-07-01T00:03:25.954Z,0
2018-07-01T00:04:35.753Z,0
2018-07-01T00:05:45.822Z,0
2018-07-01T00:06:55.672Z,0
2018-07-01T00:08:05.728Z,0
2018-07-01T00:09:15.518Z,0
2018-07-01T00:10:25.591Z,0
2018-07-01T00:11:35.392Z,0
2018-07-01T00:12:45.517Z,0
2018-07-01T00:13:55.597Z,0
2018-07-01T00:15:05.404Z,0
2018-07-01T00:16:14.766Z,0
2018-07-01T00:17:24.568Z,0
2018-07-01T00:18:34.690Z,0
2018-07-01T00:19:44.481Z,0
2018-07-01T00:20:54.555Z,0
2018-07-01T00:22:04.346Z,0
2018-07-01T00:23:13.915Z,0
2018-07-01T00:24:23.482Z,0
2018-07-01T00:25:33.289Z,0
2018-07-01T00:26:43.349Z,0
2018-07-01T00:27:52.876Z,0
2018-07-01T00:29:02.959Z,0
2018-07-01T00:30:12.537Z,0
2018-07-01T00:31:22.331Z,0
2018-07-01T00:32:32.402Z,0
2018-07-01T00:33:42.198Z,0
2018-07-01T00:34:52.278Z,0
2018-07-01T00:36:02.421Z,0
2018-07-01T00:37:12.505Z,0
2018-07-01T00:38:22.572Z,0
2018-07-01T00:39:32.664Z,0
2018-07-01T00:40:42.190Z,0
2018-07-01T00:41:52.307Z,0
2018-07-01T00:43:01.831Z,0
2018-07-01T00:44:11.627Z,0
2018-07-01T00:45:21.681Z,0
2018-07-01T00:46:31.745Z,0
2018-07-01T00:47:41.584Z,0
2018-07-01T00:48:51.101Z,0
2018-07-01T00:50:01.177Z,0
2018-07-01T00:51:10.968Z,0
2018-07-01T00:52:21.020Z,0
2018-07-01T00:53:30.909Z,0
2018-07-01T00:54:40.714Z,0
2018-07-01T00:55:50.764Z,0
2018-07-01T00:57:00.828Z,0
2018-07-01T00:58:10.336Z,0
2018-07-01T00:59:20.189Z,0
2018-07-01T01:00:29.722Z,0
2018-07-01T01:01:39.775Z,0
2018-07-01T01:02:49.309Z,0
2018-07-01T01:03:58.842Z,0
2018-07-01T01:05:08.705Z,0
2018-07-01T01:06:18.765Z,0
2018-07-01T01:07:28.825Z,0
2018-07-01T01:08:38.623Z,0
2018-07-01T01:09:48.699Z,0
2018-07-01T01:10:58.821Z,0
2018-07-01T01:12:08.612Z,0
2018-07-01T01:13:17.862Z,0
2018-07-01T01:14:27.949Z,0
2018-07-01T01:15:37.758Z,0
2018-07-01T01:16:47.870Z,0
2018-07-01T01:17:57.686Z,0
2018-07-01T01:19:07.766Z,0
2018-07-01T01:20:17.591Z,0
2018-07-01T01:21:27.659Z,0
2018-07-01T01:22:37.508Z,0
2018-07-01T01:23:47.561Z,0
2018-07-01T01:24:57.364Z,0
2018-07-01T01:26:06.886Z,0
2018-07-01T01:27:16.952Z,0
2018-07-01T01:28:27.055Z,0
2018-07-01T01:29:36.307Z,0
2018-07-01T01:30:46.106Z,5
2018-07-01T01:31:55.895Z,5
2018-07-01T01:33:05.708Z,5
2018-07-01T01:34:15.291Z,5
2018-07-01T01:35:25.332Z,5
2018-07-01T01:36:35.129Z,5
2018-07-01T01:37:45.198Z,5
2018-07-01T01:38:55.276Z,5
2018-07-01T01:40:05.384Z,5
2018-07-01T01:41:15.447Z,5
2018-07-01T01:42:24.967Z,5
2018-07-01T01:43:34.765Z,5
2018-07-01T01:44:44.567Z,5
2018-07-01T01:45:54.690Z,5
2018-07-01T01:47:04.492Z,10
2018-07-01T01:48:14.296Z,10
2018-07-01T01:49:24.409Z,10
2018-07-01T01:50:34.213Z,10
2018-07-01T01:51:44.304Z,10
2018-07-01T01:52:54.368Z,10
2018-07-01T01:54:04.173Z,10
2018-07-01T01:55:14.247Z,10
2018-07-01T01:56:24.306Z,10
2018-07-01T01:57:33.618Z,15
2018-07-01T01:58:43.669Z,15
2018-07-01T01:59:52.936Z,15
2018-07-01T02:01:02.721Z,15
2018-07-01T02:02:12.787Z,15
2018-07-01T02:03:22.905Z,15
2018-07-01T02:04:32.973Z,20
2018-07-01T02:05:43.051Z,20
2018-07-01T02:06:52.888Z,20
2018-07-01T02:08:02.941Z,25
2018-07-01T02:09:12.789Z,25
2018-07-01T02:10:22.850Z,25
2018-07-01T02:11:32.638Z,25
2018-07-01T02:12:42.686Z,25
2018-07-01T02:13:52.766Z,30
2018-07-01T02:15:02.882Z,30
2018-07-01T02:16:12.184Z,30
2018-07-01T02:17:22.286Z,30
2018-07-01T02:18:31.800Z,30
2018-07-01T02:19:41.863Z,35
2018-07-01T02:20:51.695Z,35
2018-07-01T02:22:01.765Z,35
2018-07-01T02:23:11.549Z,35
2018-07-01T02:24:21.630Z,35
2018-07-01T02:25:31.146Z,35
2018-07-01T02:26:40.975Z,35
2018-07-01T02:27:51.032Z,35
2018-07-01T02:29:01.101Z,35
2018-07-01T02:30:11.195Z,40
2018-07-01T02:31:20.992Z,40
2018-07-01T02:32:30.851Z,40
2018-07-01T02:33:40.919Z,40
2018-07-01T02:34:50.980Z,45
2018-07-01T02:36:00.771Z,45
2018-07-01T02:37:10.579Z,45
2018-07-01T02:38:20.696Z,45
2018-07-01T02:39:29.948Z,50
2018-07-01T02:40:40.010Z,50
2018-07-01T02:41:50.097Z,50
2018-07-01T02:43:00.170Z,50
2018-07-01T02:44:10.283Z,50
2018-07-01T02:45:20.347Z,55
2018-07-01T02:46:29.886Z,55
2018-07-01T02:47:39.696Z,55
2018-07-01T02:48:49.747Z,55
2018-07-01T02:49:59.603Z,60
2018-07-01T02:51:09.402Z,60
2018-07-01T02:52:19.500Z,60
2018-07-01T02:53:29.311Z,60
2018-07-01T02:54:39.368Z,65
2018-07-01T02:55:49.484Z,65
2018-07-01T02:56:59.017Z,65
2018-07-01T02:58:08.823Z,65
2018-07-01T02:59:18.892Z,65
2018-07-01T03:03:30.527Z,70
2018-07-01T03:04:40.600Z,75
2018-07-01T03:05:50.698Z,75
2018-07-01T03:07:00.509Z,75
2018-07-01T03:08:10.297Z,75
2018-07-01T03:09:20.423Z,75
2018-07-01T03:10:30.219Z,80
2018-07-01T03:11:40.019Z,80
2018-07-01T03:12:49.562Z,80
2018-07-01T03:13:59.379Z,80
2018-07-01T03:15:09.494Z,80
2018-07-01T03:16:19.292Z,80
2018-07-01T03:17:29.110Z,80
2018-07-01T03:18:38.630Z,80
2018-07-01T03:19:48.168Z,80
2018-07-01T03:20:58.011Z,85
2018-07-01T03:22:07.555Z,85
2018-07-01T03:23:17.368Z,85
2018-07-01T03:24:27.162Z,85
2018-07-01T03:25:36.951Z,90
2018-07-01T03:26:47.084Z,90
2018-07-01T03:27:56.860Z,90
2018-07-01T03:29:06.410Z,90
2018-07-01T03:30:15.700Z,90
2018-07-01T03:31:25.492Z,95
2018-07-01T03:32:35.615Z,95
2018-07-01T03:33:45.676Z,95
2018-07-01T03:34:55.471Z,95
2018-07-01T03:36:05.552Z,95
2018-07-01T03:37:15.633Z,100
2018-07-01T03:38:25.465Z,100
2018-07-01T03:39:35.527Z,100
2018-07-01T03:40:45.588Z,100
2018-07-01T03:41:55.668Z,100
2018-07-01T03:43:05.189Z,105
2018-07-01T03:44:14.754Z,105
2018-07-01T03:45:24.554Z,105
2018-07-01T03:46:34.594Z,105
2018-07-01T03:47:44.399Z,105
2018-07-01T03:48:54.192Z,110
2018-07-01T03:50:03.828Z,110
2018-07-01T03:51:13.906Z,110
2018-07-01T03:52:23.958Z,110
2018-07-01T03:53:34.009Z,110
2018-07-01T03:54:43.553Z,115
2018-07-01T03:55:53.651Z,115
2018-07-01T03:57:03.717Z,115
2018-07-01T03:58:13.793Z,115
2018-07-01T03:59:23.594Z,115
2018-07-01T04:00:33.710Z,115
2018-07-01T04:01:43.263Z,115
2018-07-01T04:02:53.343Z,115
2018-07-01T04:04:03.143Z,115
2018-07-01T04:05:12.937Z,115
2018-07-01T04:06:23.020Z,115
2018-07-01T04:07:33.141Z,115
2018-07-01T04:08:43.238Z,120
2018-07-01T04:09:53.049Z,120
2018-07-01T04:11:03.097Z,120
2018-07-01T04:12:12.620Z,120
2018-07-01T04:13:22.751Z,120
2018-07-01T04:14:32.561Z,120
2018-07-01T04:15:42.640Z,120
2018-07-01T04:16:52.423Z,125
2018-07-01T04:18:02.498Z,125
2018-07-01T04:19:12.061Z,125
2018-07-01T04:20:21.585Z,125
2018-07-01T04:21:31.380Z,125
2018-07-01T04:22:40.908Z,125
2018-07-01T04:23:50.165Z,125
2018-07-01T04:25:00.291Z,130
2018-07-01T04:26:10.111Z,130
2018-07-01T04:27:20.191Z,130
2018-07-01T04:28:29.981Z,130
2018-07-01T04:29:39.769Z,130
2018-07-01T04:30:49.883Z,130
2018-07-01T04:31:59.143Z,130
2018-07-01T04:33:09.207Z,140
2018-07-01T04:34:19.267Z,140
2018-07-01T04:35:29.078Z,135
2018-07-01T04:36:38.924Z,135
2018-07-01T04:37:48.999Z,135
2018-07-01T04:38:59.062Z,135
2018-07-01T04:40:08.875Z,135
2018-07-01T04:41:18.405Z,135
2018-07-01T04:42:28.568Z,140
2018-07-01T04:43:38.660Z,140
2018-07-01T04:44:48.460Z,140
2018-07-01T04:45:58.549Z,140
2018-07-01T04:47:08.390Z,140
2018-07-01T04:48:18.514Z,140
2018-07-01T04:49:28.796Z,140
2018-07-01T04:50:38.856Z,140
2018-07-01T04:51:48.632Z,140
2018-07-01T04:52:58.149Z,140
2018-07-01T04:54:07.728Z,140
2018-07-01T04:55:18.427Z,140
2018-07-01T04:56:28.253Z,140
2018-07-01T04:57:38.335Z,140
2018-07-01T04:58:48.136Z,140
2018-07-01T04:59:57.974Z,140
2018-07-01T05:01:07.766Z,140
2018-07-01T05:02:18.064Z,140
2018-07-01T05:03:28.124Z,140
2018-07-01T05:04:38.200Z,140
2018-07-01T05:05:47.773Z,145
2018-07-01T05:06:57.860Z,145
2018-07-01T05:08:07.651Z,145
2018-07-01T05:09:17.722Z,145
2018-07-01T05:10:27.535Z,145
2018-07-01T05:11:37.114Z,145
2018-07-01T05:12:47.197Z,145
2018-07-01T05:13:57.259Z,145
2018-07-01T05:15:06.799Z,145
2018-07-01T05:16:16.599Z,145
2018-07-01T05:17:26.728Z,150
2018-07-01T05:18:36.547Z,145
2018-07-01T05:19:46.625Z,145
2018-07-01T05:20:56.696Z,150
2018-07-01T05:22:06.753Z,145
2018-07-01T05:23:16.873Z,145
2018-07-01T05:24:26.664Z,150
2018-07-01T05:25:36.519Z,150
2018-07-01T05:26:46.590Z,155
2018-07-01T05:27:56.685Z,150
2018-07-01T05:29:06.267Z,150
2018-07-01T05:30:16.071Z,150
2018-07-01T05:31:25.066Z,150
2018-07-01T05:32:35.134Z,155
2018-07-01T05:33:45.139Z,150
2018-07-01T05:34:54.954Z,150
2018-07-01T05:36:05.034Z,150
2018-07-01T05:37:15.113Z,150
2018-07-01T05:38:24.631Z,150
2018-07-01T05:39:34.419Z,150
2018-07-01T05:40:44.560Z,150
2018-07-01T05:41:54.627Z,150
2018-07-01T05:43:04.690Z,150
2018-07-01T05:44:14.764Z,155
2018-07-01T05:45:24.557Z,155
2018-07-01T05:46:34.411Z,155
2018-07-01T05:47:43.938Z,155
2018-07-01T05:48:53.752Z,155
2018-07-01T05:50:03.842Z,155
2018-07-01T05:51:13.640Z,155
2018-07-01T05:52:23.475Z,155
2018-07-01T05:53:32.993Z,155
2018-07-01T05:54:42.800Z,155
2018-07-01T05:55:52.598Z,155
2018-07-01T05:57:02.759Z,155
2018-07-01T05:58:12.618Z,155
2018-07-01T05:59:22.401Z,155
2018-07-01T06:00:32.532Z,155
2018-07-01T06:01:42.599Z,155
2018-07-01T06:02:52.658Z,155
2018-07-01T06:04:02.770Z,160
2018-07-01T06:05:12.573Z,155
2018-07-01T06:06:22.690Z,160
2018-07-01T06:07:32.232Z,160
2018-07-01T06:08:42.500Z,160
2018-07-01T06:09:52.632Z,160
2018-07-01T06:11:02.699Z,160
2018-07-01T06:12:12.501Z,160
2018-07-01T06:13:22.556Z,160
2018-07-01T06:14:32.081Z,160
2018-07-01T06:15:42.201Z,160
2018-07-01T06:16:52.121Z,160
2018-07-01T06:18:02.098Z,160
2018-07-01T06:19:11.903Z,160
2018-07-01T06:20:21.997Z,160
2018-07-01T06:21:32.112Z,160
2018-07-01T06:22:42.184Z,160
2018-07-01T06:23:52.263Z,160
2018-07-01T06:25:02.059Z,160
2018-07-01T06:26:11.318Z,160
2018-07-01T06:27:21.174Z,160
2018-07-01T06:28:31.248Z,165
2018-07-01T06:29:40.764Z,165
2018-07-01T06:30:50.822Z,165
2018-07-01T06:32:00.609Z,165
2018-07-01T06:33:10.459Z,165
2018-07-01T06:34:20.542Z,165
2018-07-01T06:35:30.363Z,165
2018-07-01T06:36:53.185Z,165
2018-07-01T06:38:03.560Z,165
2018-07-01T06:39:13.640Z,170
2018-07-01T06:40:23.737Z,165
2018-07-01T06:41:33.533Z,165
2018-07-01T06:42:42.777Z,165
2018-07-01T06:43:52.367Z,165
2018-07-01T06:45:02.441Z,165
2018-07-01T06:46:11.695Z,165
2018-07-01T06:47:21.778Z,165
2018-07-01T06:48:31.290Z,165
2018-07-01T06:49:41.044Z,165
2018-07-01T06:50:50.843Z,165
2018-07-01T06:52:00.918Z,170
2018-07-01T06:53:10.713Z,165
2018-07-01T06:54:20.791Z,165
2018-07-01T06:55:30.623Z,165
2018-07-01T06:56:40.650Z,165
2018-07-01T06:57:50.473Z,165
2018-07-01T06:59:00.539Z,165
2018-07-01T07:00:10.346Z,165
2018-07-01T07:01:20.198Z,165
2018-07-01T07:02:30.541Z,165
2018-07-01T07:03:40.713Z,165
2018-07-01T07:04:50.783Z,165
2018-07-01T07:06:00.857Z,170
2018-07-01T07:07:10.443Z,170
2018-07-01T07:08:20.522Z,170
2018-07-01T07:09:30.310Z,170
2018-07-01T07:10:40.404Z,170
2018-07-01T07:11:50.476Z,170
2018-07-01T07:13:00.586Z,170
2018-07-01T07:14:10.672Z,170
2018-07-01T07:15:20.745Z,170
2018-07-01T07:16:31.123Z,170
2018-07-01T07:17:40.924Z,170
2018-07-01T07:18:49.977Z,170
2018-07-01T07:20:00.050Z,170
2018-07-01T07:21:09.847Z,170
2018-07-01T07:22:19.652Z,170
2018-07-01T07:23:29.721Z,175
2018-07-01T07:24:40.140Z,170
2018-07-01T07:25:49.944Z,175
2018-07-01T07:27:00.022Z,180
2018-07-01T07:28:10.092Z,175
2018-07-01T07:29:20.166Z,175
2018-07-01T07:30:30.286Z,175
2018-07-01T07:31:40.096Z,175
2018-07-01T07:32:49.896Z,175
2018-07-01T07:33:59.965Z,175
2018-07-01T07:35:10.033Z,175
2018-07-01T07:36:20.149Z,175
2018-07-01T07:37:30.218Z,175
2018-07-01T07:38:40.286Z,175
2018-07-01T07:39:50.098Z,175
2018-07-01T07:41:00.173Z,175
2018-07-01T07:42:10.030Z,175
2018-07-01T07:43:20.112Z,175
2018-07-01T07:44:29.923Z,175
2018-07-01T07:45:39.982Z,175
2018-07-01T07:46:49.791Z,175
2018-07-01T07:47:59.906Z,175
2018-07-01T07:49:09.963Z,180
2018-07-01T07:50:20.026Z,180
2018-07-01T07:51:30.106Z,180
2018-07-01T07:52:39.897Z,180
2018-07-01T07:53:50.020Z,180
2018-07-01T07:54:59.287Z,180
2018-07-01T07:56:09.092Z,180
2018-07-01T07:57:18.901Z,180
2018-07-01T07:58:28.425Z,180
2018-07-01T07:59:38.259Z,180
2018-07-01T08:00:48.333Z,180
2018-07-01T08:01:58.266Z,185
2018-07-01T08:03:08.075Z,180
2018-07-01T08:04:17.890Z,180
2018-07-01T08:05:28.015Z,180
2018-07-01T08:06:37.544Z,180
2018-07-01T08:07:47.632Z,180
2018-07-01T08:08:57.688Z,185
2018-07-01T08:10:07.824Z,185
2018-07-01T08:11:17.936Z,185
2018-07-01T08:12:27.732Z,190
2018-07-01T08:13:37.547Z,185
2018-07-01T08:14:47.620Z,185
2018-07-01T08:15:57.428Z,185
2018-07-01T08:17:07.016Z,185
2018-07-01T08:18:17.091Z,190
2018-07-01T08:19:27.166Z,185
2018-07-01T08:20:37.230Z,185
2018-07-01T08:21:46.768Z,185
2018-07-01T08:22:56.353Z,185
2018-07-01T08:24:06.424Z,185
2018-07-01T08:25:15.962Z,185
2018-07-01T08:26:26.049Z,185
2018-07-01T08:27:36.143Z,190
2018-07-01T08:28:46.264Z,190
2018-07-01T08:29:56.078Z,190
2018-07-01T08:31:05.888Z,190
2018-07-01T08:32:15.964Z,190
2018-07-01T08:33:26.032Z,190
2018-07-01T08:34:36.416Z,190
2018-07-01T08:35:46.236Z,190
2018-07-01T08:36:56.036Z,190
2018-07-01T08:38:05.570Z,190
2018-07-01T08:39:15.653Z,190
2018-07-01T08:40:26.134Z,190
2018-07-01T08:41:35.662Z,190
2018-07-01T08:42:45.753Z,190
2018-07-01T08:43:55.818Z,190
2018-07-01T08:45:05.905Z,190
2018-07-01T08:46:15.803Z,195
2018-07-01T08:47:25.888Z,200
2018-07-01T08:48:35.690Z,200
2018-07-01T08:49:45.500Z,195
2018-07-01T08:50:55.602Z,195
2018-07-01T08:52:05.734Z,195
2018-07-01T08:53:15.271Z,195
2018-07-01T08:54:25.345Z,195
2018-07-01T08:55:35.150Z,195
2018-07-01T08:56:44.681Z,195
2018-07-01T08:57:54.656Z,195
2018-07-01T08:59:04.512Z,195
2018-07-01T09:00:14.570Z,195
2018-07-01T09:01:24.366Z,195
2018-07-01T09:02:34.167Z,195
2018-07-01T09:03:44.278Z,195
2018-07-01T09:04:54.090Z,200
2018-07-01T09:06:03.337Z,200
2018-07-01T09:07:13.150Z,200
2018-07-01T09:08:23.216Z,200
2018-07-01T09:09:33.058Z,200
2018-07-01T09:10:43.130Z,200
2018-07-01T09:11:52.926Z,200
2018-07-01T09:13:03.004Z,200
2018-07-01T09:14:12.802Z,200
2018-07-01T09:15:22.656Z,200
2018-07-01T09:16:32.730Z,200
2018-07-01T09:17:42.537Z,200
2018-07-01T09:18:52.073Z,200
2018-07-01T09:20:01.874Z,200
2018-07-01T09:21:11.194Z,205
2018-07-01T09:22:21.277Z,205
2018-07-01T09:23:31.544Z,205
2018-07-01T09:24:41.633Z,205
2018-07-01T09:25:51.170Z,205
2018-07-01T09:27:01.018Z,205
2018-07-01T09:28:10.552Z,205
2018-07-01T09:29:20.641Z,205
2018-07-01T09:30:30.718Z,205
2018-07-01T09:31:39.980Z,210
2018-07-01T09:32:49.822Z,205
2018-07-01T09:33:59.637Z,205
2018-07-01T09:35:09.173Z,205
2018-07-01T09:36:18.738Z,210
2018-07-01T09:37:28.285Z,210
2018-07-01T09:38:38.135Z,210
2018-07-01T09:39:47.932Z,210
2018-07-01T09:40:58.002Z,210
2018-07-01T09:42:08.088Z,210
2018-07-01T09:43:17.641Z,210
2018-07-01T09:44:27.615Z,210
2018-07-01T09:45:37.684Z,210
2018-07-01T09:46:47.480Z,210
2018-07-01T09:47:57.288Z,210
2018-07-01T09:49:07.097Z,210
2018-07-01T09:50:17.283Z,210
2018-07-01T09:51:26.840Z,210
2018-07-01T09:52:36.384Z,215
2018-07-01T09:53:46.453Z,215
2018-07-01T09:54:56.265Z,215
2018-07-01T09:56:05.890Z,215
2018-07-01T09:57:15.704Z,220
2018-07-01T09:58:25.778Z,215
2018-07-01T09:59:35.853Z,215
2018-07-01T10:00:45.933Z,215
2018-07-01T10:01:55.778Z,220
2018-07-01T10:03:05.836Z,215
2018-07-01T10:04:15.371Z,215
2018-07-01T10:05:25.454Z,220
2018-07-01T10:06:35.507Z,220
2018-07-01T10:07:45.637Z,220
2018-07-01T10:08:55.714Z,220
2018-07-01T10:10:05.787Z,220
2018-07-01T10:11:15.322Z,220
2018-07-01T10:12:25.390Z,220
2018-07-01T10:13:35.510Z,220
2018-07-01T10:14:45.325Z,220
2018-07-01T10:15:55.462Z,220
2018-07-01T10:17:05.561Z,220
2018-07-01T10:18:15.639Z,220
2018-07-01T10:19:25.494Z,220
2018-07-01T10:20:35.573Z,225
2018-07-01T10:21:45.114Z,225
2018-07-01T10:22:55.180Z,225
2018-07-01T10:24:04.439Z,225
2018-07-01T10:25:14.556Z,225
2018-07-01T10:26:24.419Z,225
2018-07-01T10:27:34.515Z,225
2018-07-01T10:28:44.590Z,225
2018-07-01T10:29:54.388Z,225
2018-07-01T10:31:04.237Z,225
2018-07-01T10:32:14.037Z,225
2018-07-01T10:33:23.846Z,225
2018-07-01T10:34:33.648Z,230
2018-07-01T10:35:43.455Z,230
2018-07-01T10:36:53.306Z,230
2018-07-01T10:38:03.368Z,230
2018-07-01T10:39:13.206Z,230
2018-07-01T10:40:23.423Z,230
2018-07-01T10:41:32.698Z,230
2018-07-01T10:42:42.814Z,230
2018-07-01T10:43:52.623Z,230
2018-07-01T10:45:02.156Z,230
2018-07-01T10:46:11.432Z,230
2018-07-01T10:47:21.499Z,230
2018-07-01T10:48:31.362Z,235
2018-07-01T10:49:41.184Z,235
2018-07-01T10:50:51.268Z,235
2018-07-01T10:52:01.094Z,235
2018-07-01T10:53:10.369Z,235
2018-07-01T10:54:20.602Z,235
2018-07-01T10:55:30.704Z,235
2018-07-01T10:56:40.506Z,235
2018-07-01T10:57:50.743Z,235
2018-07-01T10:59:00.803Z,235
2018-07-01T11:00:10.653Z,235
2018-07-01T11:01:20.463Z,235
2018-07-01T11:02:30.535Z,245
2018-07-01T11:03:40.617Z,240
2018-07-01T11:04:50.690Z,240
2018-07-01T11:06:00.880Z,240
2018-07-01T11:07:10.321Z,240
2018-07-01T11:08:20.391Z,240
2018-07-01T11:09:30.453Z,240
2018-07-01T11:10:39.709Z,240
2018-07-01T11:11:50.120Z,240
2018-07-01T11:12:59.675Z,240
2018-07-01T11:14:09.228Z,240
2018-07-01T11:15:18.763Z,245
2018-07-01T11:16:28.576Z,245
2018-07-01T11:17:38.720Z,245
2018-07-01T11:18:48.534Z,245
2018-07-01T11:19:58.347Z,245
2018-07-01T11:21:07.363Z,250
2018-07-01T11:22:17.180Z,250
2018-07-01T11:23:27.310Z,250
2018-07-01T11:24:37.380Z,250
2018-07-01T11:25:47.172Z,250
2018-07-01T11:26:58.406Z,250
2018-07-01T11:28:08.051Z,250
2018-07-01T11:29:18.179Z,255
2018-07-01T11:30:28.274Z,255
2018-07-01T11:31:38.091Z,255
2018-07-01T11:32:48.187Z,255
2018-07-01T11:33:57.971Z,260
2018-07-01T11:35:08.067Z,265
2018-07-01T11:36:17.879Z,265
2018-07-01T11:37:27.727Z,270
2018-07-01T11:38:37.510Z,310
2018-07-01T11:39:47.048Z,1215
2018-07-01T11:40:57.180Z,2685
2018-07-01T11:42:07.258Z,2980
2018-07-01T11:43:16.801Z,2695
2018-07-01T11:44:26.336Z,2715
2018-07-01T11:45:35.857Z,2735
2018-07-01T11:46:45.979Z,3065
2018-07-01T11:47:56.053Z,3270
2018-07-01T11:49:06.124Z,3015
2018-07-01T11:50:16.230Z,3005
2018-07-01T11:51:26.041Z,3160
2018-07-01T11:52:36.163Z,3305
2018-07-01T11:53:45.985Z,3220
2018-07-01T11:54:55.532Z,3290
2018-07-01T11:56:05.627Z,3350
2018-07-01T11:57:15.445Z,3260
2018-07-01T11:58:25.600Z,3120
2018-07-01T11:59:35.671Z,3175
2018-07-01T12:00:45.224Z,2950
2018-07-01T12:01:55.124Z,3160
2018-07-01T12:03:04.747Z,3090
2018-07-01T12:04:14.894Z,2995
2018-07-01T12:05:26.660Z,2980
2018-07-01T12:06:36.549Z,2940
2018-07-01T12:07:46.636Z,2720
2018-07-01T12:08:56.744Z,2815
2018-07-01T12:10:06.618Z,2985
2018-07-01T12:11:16.703Z,3050
2018-07-01T12:12:26.506Z,2905
2018-07-01T12:13:36.309Z,2700
2018-07-01T12:14:46.115Z,2665
2018-07-01T12:15:55.746Z,2615
2018-07-01T12:17:05.564Z,2830
2018-07-01T12:18:15.389Z,2800
2018-07-01T12:19:25.482Z,3045
2018-07-01T12:20:35.026Z,3025
2018-07-01T12:21:44.880Z,3085
2018-07-01T12:22:54.450Z,3375
2018-07-01T12:24:04.008Z,3260
2018-07-01T12:25:13.834Z,3200
2018-07-01T12:26:23.928Z,3290
2018-07-01T12:27:34.070Z,3245
2018-07-01T12:28:44.263Z,2935
2018-07-01T12:29:54.352Z,2990
2018-07-01T12:31:03.900Z,2925
2018-07-01T12:32:13.970Z,3285
2018-07-01T12:33:23.837Z,3180
2018-07-01T12:34:33.381Z,3030
2018-07-01T12:35:43.489Z,3100
2018-07-01T12:36:53.595Z,3075
2018-07-01T12:38:03.404Z,2725
2018-07-01T12:39:13.270Z,2790
2018-07-01T12:40:23.352Z,2930
2018-07-01T12:41:33.172Z,2870
2018-07-01T12:42:42.981Z,2900
2018-07-01T12:43:53.063Z,2925
2018-07-01T12:45:02.937Z,3075
2018-07-01T12:46:12.757Z,3155
2018-07-01T12:47:22.873Z,3065
2018-07-01T12:48:32.960Z,3085
2018-07-01T12:49:42.808Z,3160
2018-07-01T12:50:52.411Z,3130
2018-07-01T12:52:02.230Z,3050
2018-07-01T12:53:12.057Z,3015
2018-07-01T12:54:22.141Z,3035
2018-07-01T12:55:32.224Z,3030
2018-07-01T12:56:42.316Z,2920
2018-07-01T12:57:52.432Z,2815
2018-07-01T12:59:02.524Z,2905
2018-07-01T13:00:12.327Z,2710
2018-07-01T13:01:22.437Z,2860
2018-07-01T13:02:32.389Z,3020
2018-07-01T13:03:42.486Z,2665
2018-07-01T13:04:52.573Z,2610
2018-07-01T13:06:02.681Z,2655
2018-07-01T13:07:12.233Z,2595
2018-07-01T13:08:22.383Z,2400
2018-07-01T13:09:32.200Z,2185
2018-07-01T13:10:42.025Z,2100
2018-07-01T13:11:51.895Z,2075
2018-07-01T13:13:02.022Z,2005
2018-07-01T13:14:12.178Z,2015
2018-07-01T13:15:22.282Z,2065
2018-07-01T13:16:32.373Z,2050
2018-07-01T13:17:42.450Z,2190
2018-07-01T13:18:52.279Z,2780
2018-07-01T13:20:02.428Z,3285
2018-07-01T13:21:12.255Z,3275
2018-07-01T13:22:22.069Z,3460
2018-07-01T13:23:31.895Z,3760
2018-07-01T13:24:41.711Z,3750
2018-07-01T13:25:51.861Z,3680
2018-07-01T13:27:01.953Z,3850
2018-07-01T13:28:11.239Z,3850
2018-07-01T13:29:20.802Z,3690
2018-07-01T13:30:30.348Z,3515
2018-07-01T13:31:40.222Z,3935
2018-07-01T13:32:50.322Z,3985
2018-07-01T13:34:00.426Z,3695
2018-07-01T13:35:10.535Z,3630
2018-07-01T13:36:20.643Z,3855
2018-07-01T13:37:30.525Z,3985
2018-07-01T13:38:40.354Z,3940
2018-07-01T13:39:50.161Z,4180
2018-07-01T13:41:00.250Z,4510
2018-07-01T13:42:09.800Z,4215
2018-07-01T13:43:19.674Z,3775
2018-07-01T13:44:29.762Z,4050
2018-07-01T13:45:39.858Z,3850
2018-07-01T13:46:49.133Z,3585
2018-07-01T13:47:58.943Z,3710
2018-07-01T13:49:08.598Z,4015
2018-07-01T13:50:18.691Z,4030
2018-07-01T13:51:28.508Z,3805
2018-07-01T13:52:38.602Z,3805
2018-07-01T13:53:48.147Z,3770
2018-07-01T13:54:58.301Z,3530
2018-07-01T13:56:08.751Z,3680
2018-07-01T13:57:18.838Z,3650
2018-07-01T13:58:28.658Z,3450
2018-07-01T13:59:38.474Z,3270
2018-07-01T14:00:49.001Z,3385
2018-07-01T14:01:58.918Z,3460
2018-07-01T14:03:08.745Z,3665
2018-07-01T14:04:19.015Z,3730
2018-07-01T14:05:29.099Z,3830
2018-07-01T14:06:39.560Z,3795
2018-07-01T14:07:49.433Z,3625
2018-07-01T14:08:59.252Z,3675
2018-07-01T14:10:09.362Z,3895
2018-07-01T14:11:19.467Z,3780
2018-07-01T14:12:29.619Z,3700
2018-07-01T14:13:39.735Z,3855
2018-07-01T14:14:49.834Z,3725
2018-07-01T14:15:59.670Z,3650
2018-07-01T14:17:09.497Z,3595
2018-07-01T14:18:19.092Z,3490
2018-07-01T14:19:28.655Z,3640
2018-07-01T14:20:38.751Z,3660
2018-07-01T14:21:48.551Z,3655
2018-07-01T14:22:58.626Z,3675
2018-07-01T14:24:08.228Z,3670
2018-07-01T14:25:18.073Z,3660
2018-07-01T14:26:27.886Z,3305
2018-07-01T14:27:37.974Z,3260
2018-07-01T14:28:48.080Z,3385
2018-07-01T14:29:58.141Z,3315
2018-07-01T14:31:07.680Z,3350
2018-07-01T14:32:17.236Z,3430
2018-07-01T14:33:27.085Z,3360
2018-07-01T14:34:37.188Z,3395
2018-07-01T14:35:47.284Z,3335
2018-07-01T14:36:56.820Z,3290
2018-07-01T14:38:06.650Z,3375
2018-07-01T14:39:16.197Z,3375
2018-07-01T14:40:26.294Z,3290
2018-07-01T14:41:36.441Z,3430
2018-07-01T14:42:46.537Z,3395
2018-07-01T14:43:56.615Z,3195
2018-07-01T14:45:06.428Z,3175
2018-07-01T14:46:16.254Z,3250
2018-07-01T14:47:26.121Z,3180
2018-07-01T14:48:36.207Z,3220
2018-07-01T14:49:46.311Z,3395
2018-07-01T14:50:56.431Z,3270
2018-07-01T14:52:06.260Z,3160
2018-07-01T14:53:16.151Z,3200
2018-07-01T14:54:25.698Z,3205
2018-07-01T14:55:35.516Z,3180
2018-07-01T14:56:45.077Z,3000
2018-07-01T14:57:55.165Z,2970
2018-07-01T14:59:05.324Z,2880
2018-07-01T15:00:15.420Z,2885
2018-07-01T15:01:25.592Z,3115
2018-07-01T15:02:35.366Z,3105
2018-07-01T15:03:44.907Z,2935
2018-07-01T15:04:55.069Z,2990
2018-07-01T15:06:04.896Z,3190
2018-07-01T15:07:14.715Z,3170
2018-07-01T15:08:24.817Z,3145
2018-07-01T15:09:34.644Z,3115
2018-07-01T15:10:44.237Z,2965
2018-07-01T15:11:54.332Z,2935
2018-07-01T15:13:04.154Z,3000
2018-07-01T15:14:14.240Z,3055
2018-07-01T15:15:23.793Z,3145
2018-07-01T15:16:34.287Z,3165
2018-07-01T15:17:43.833Z,3105
2018-07-01T15:18:53.649Z,3200
2018-07-01T15:20:03.739Z,3165
2018-07-01T15:21:13.836Z,3190
2018-07-01T15:22:23.720Z,3225
2018-07-01T15:23:33.262Z,3140
2018-07-01T15:24:43.350Z,3120
2018-07-01T15:25:53.181Z,3170
2018-07-01T15:27:03.010Z,3055
2018-07-01T15:28:13.196Z,3095
2018-07-01T15:29:22.883Z,3080
2018-07-01T15:30:32.430Z,2890
2018-07-01T15:31:42.266Z,3070
2018-07-01T15:32:52.350Z,3135
2018-07-01T15:34:02.495Z,3010
2018-07-01T15:35:12.599Z,2900
2018-07-01T15:36:22.707Z,2970
2018-07-01T15:37:32.273Z,2845
2018-07-01T15:38:42.406Z,2775
2018-07-01T15:39:52.556Z,2830
2018-07-01T15:41:02.386Z,3020
2018-07-01T15:42:12.204Z,3030
2018-07-01T15:43:22.041Z,3055
2018-07-01T15:44:31.872Z,2990
2018-07-01T15:45:42.014Z,3020
2018-07-01T15:46:51.835Z,3060
2018-07-01T15:48:01.684Z,2975
2018-07-01T15:49:11.239Z,2835
2018-07-01T15:50:20.851Z,2855
2018-07-01T15:51:31.006Z,2885
2018-07-01T15:52:40.826Z,2895
2018-07-01T15:53:50.939Z,2835
2018-07-01T15:55:00.345Z,2785
2018-07-01T15:56:10.459Z,2765
2018-07-01T15:57:20.619Z,2790
2018-07-01T15:58:30.446Z,2730
2018-07-01T15:59:40.382Z,2770
2018-07-01T16:00:50.210Z,2760
2018-07-01T16:01:59.493Z,2800
2018-07-01T16:03:09.382Z,2780
2018-07-01T16:04:19.201Z,2815
2018-07-01T16:05:29.293Z,2810
2018-07-01T16:06:38.855Z,2860
2018-07-01T16:07:48.950Z,2790